Time;durP1;ratioP1;P1;durP2;ratioP2;P2;SDS_P1;SDS_P2;PMS_P1;PMS_P2;Temp;Humidity;BMP_temperature;BMP_pressure;BME280_temperature;BME280_humidity;BME280_pressure;Samples;Min_cycle;Max_cycle;Signal;HPM_P1;HPM_P2
2022/04/28 00:01:11;;;;;;;5.73;5.13;;;3.90;99.90;4.30;97412.00;;;;4970117;28;20497;-71
2022/04/28 00:03:40;;;;;;;9.33;6.17;;;3.90;99.90;4.50;97407.00;;;;4965733;28;20454;-71
2022/04/28 00:06:08;;;;;;;5.93;5.33;;;3.90;99.90;4.60;97422.00;;;;4971304;28;20537;-70
2022/04/28 00:08:39;;;;;;;6.17;5.20;;;4.00;99.90;4.70;97421.00;;;;4973108;28;20433;-70
2022/04/28 00:11:11;;;;;;;8.10;5.97;;;4.10;99.90;4.80;97415.00;;;;4973863;28;20494;-71
2022/04/28 00:13:40;;;;;;;5.90;5.37;;;4.10;99.90;4.80;97412.00;;;;4973004;28;20427;-71
2022/04/28 00:16:08;;;;;;;11.27;5.07;;;4.20;99.90;4.60;97421.00;;;;4967798;28;20470;-70
2022/04/28 00:18:37;;;;;;;4.80;4.30;;;4.20;99.90;4.20;97412.00;;;;4973018;28;20200;-70
2022/04/28 00:21:06;;;;;;;4.87;4.47;;;4.10;99.90;4.40;97413.00;;;;4973413;28;20489;-70
2022/04/28 00:23:34;;;;;;;5.40;4.50;;;4.00;99.90;4.50;97414.00;;;;4973254;28;20446;-70
2022/04/28 00:26:04;;;;;;;4.97;4.53;;;4.10;99.90;4.40;97412.00;;;;4972557;28;20431;-71
2022/04/28 00:28:33;;;;;;;5.67;5.17;;;4.00;99.90;4.40;97406.00;;;;4973160;28;20286;-71
2022/04/28 00:31:01;;;;;;;5.90;5.40;;;4.00;99.90;4.40;97410.00;;;;4973159;28;20490;-70
2022/04/28 00:33:30;;;;;;;5.50;4.57;;;4.00;99.90;4.30;97418.00;;;;4973480;28;20442;-71
2022/04/28 00:35:59;;;;;;;7.03;5.37;;;4.00;99.90;4.30;97420.00;;;;4973306;28;20486;-71
2022/04/28 00:38:27;;;;;;;5.20;4.70;;;4.00;99.90;4.40;97421.00;;;;4972186;28;20426;-71
2022/04/28 00:40:56;;;;;;;5.80;5.20;;;4.00;99.90;4.60;97409.00;;;;4973002;28;20431;-71
2022/04/28 00:43:28;;;;;;;5.17;4.60;;;4.00;99.90;4.30;97418.00;;;;4972894;28;20443;-71
2022/04/28 00:45:57;;;;;;;5.30;4.20;;;4.00;99.90;4.30;97428.00;;;;4972807;28;20439;-71
2022/04/28 00:51:14;;;;;;;5.00;4.50;;;3.90;99.90;4.20;97423.00;;;;4962156;28;20594;-71
2022/04/28 00:53:47;;;;;;;4.83;4.37;;;3.90;99.90;4.20;97421.00;;;;4973257;28;20477;-71
2022/04/28 00:56:17;;;;;;;6.00;5.40;;;3.90;99.90;4.10;97418.00;;;;4972979;28;20462;-72
2022/04/28 00:58:49;;;;;;;5.80;4.97;;;3.80;99.90;4.30;97413.00;;;;4972394;28;20462;-73
2022/04/28 01:01:18;;;;;;;5.00;4.50;;;3.90;99.90;4.50;97416.00;;;;4972774;28;20486;-72
2022/04/28 01:03:47;;;;;;;4.67;4.20;;;3.90;99.90;4.60;97419.00;;;;4972384;28;20434;-72
2022/04/28 01:06:16;;;;;;;5.43;4.80;;;4.00;99.90;4.40;97431.00;;;;4972380;28;20458;-72
2022/04/28 01:08:46;;;;;;;6.80;4.33;;;4.00;99.90;4.40;97419.00;;;;4972227;28;20465;-72
2022/04/28 01:11:16;;;;;;;6.37;5.23;;;4.00;99.90;4.40;97418.00;;;;4972613;28;20434;-73
2022/04/28 01:13:48;;;;;;;5.37;4.87;;;4.00;99.90;4.60;97418.00;;;;4972341;28;20533;-72
2022/04/28 01:16:16;;;;;;;8.07;5.77;;;4.00;99.90;4.60;97414.00;;;;4977301;28;20431;-72
2022/04/28 01:18:45;;;;;;;11.20;4.87;;;4.10;99.90;4.40;97419.00;;;;4972128;28;20225;-72
2022/04/28 01:21:15;;;;;;;6.17;4.30;;;4.00;99.90;4.40;97415.00;;;;4972620;28;20470;-72
2022/04/28 01:23:43;;;;;;;5.20;4.80;;;4.00;99.90;4.20;97411.00;;;;4971468;28;20231;-71
2022/04/28 01:26:15;;;;;;;8.30;4.77;;;3.90;99.90;4.40;97413.00;;;;4972511;28;20430;-71
2022/04/28 01:28:44;;;;;;;6.47;4.17;;;4.00;99.90;4.10;97400.00;;;;4971193;28;20501;-71
2022/04/28 01:31:12;;;;;;;9.20;4.90;;;4.00;99.90;4.10;97393.00;;;;4971768;28;20211;-71
2022/04/28 01:33:41;;;;;;;5.73;5.17;;;4.00;99.90;4.50;97392.00;;;;4971983;28;20430;-71
2022/04/28 01:36:10;;;;;;;9.13;4.57;;;4.10;99.90;4.60;97395.00;;;;4972382;28;20447;-71
2022/04/28 01:38:40;;;;;;;2.70;2.20;;;4.10;99.90;4.30;97399.00;;;;4971847;28;20442;-70
2022/04/28 01:41:08;;;;;;;5.73;5.10;;;4.20;99.90;4.50;97403.00;;;;4972191;28;20513;-70
2022/04/28 01:43:37;;;;;;;5.03;4.10;;;4.30;99.90;4.70;97406.00;;;;4972135;28;20450;-69
2022/04/28 01:46:05;;;;;;;7.00;4.57;;;4.30;99.90;4.70;97412.00;;;;4971834;28;20485;-70
2022/04/28 01:48:34;;;;;;;5.63;5.13;;;4.30;99.90;4.60;97411.00;;;;4971554;28;20431;-70
2022/04/28 01:56:36;;;;;;;4.30;3.90;;;4.20;99.90;4.40;97420.00;;;;4971898;28;20529;-70
2022/04/28 01:59:05;;;;;;;6.13;4.87;;;4.10;99.90;4.10;97419.00;;;;4971662;28;20537;-70
2022/04/28 02:01:33;;;;;;;13.73;5.20;;;4.00;99.90;3.80;97403.00;;;;4971880;28;20478;-70
2022/04/28 02:04:02;;;;;;;5.23;4.73;;;3.90;99.90;3.80;97408.00;;;;4971194;28;20490;-70
2022/04/28 02:06:30;;;;;;;5.80;4.73;;;3.80;99.90;3.90;97397.00;;;;4971585;28;20450;-70
2022/04/28 02:09:01;;;;;;;5.90;4.80;;;3.70;99.90;3.90;97395.00;;;;4958726;28;20898;-70
2022/04/28 02:11:29;;;;;;;4.97;4.47;;;3.70;99.90;4.00;97401.00;;;;4971698;28;20438;-70
2022/04/28 02:13:58;;;;;;;5.10;4.60;;;3.70;99.90;4.00;97404.00;;;;4972509;28;20434;-70
2022/04/28 02:16:26;;;;;;;5.83;4.30;;;3.70;99.90;4.10;97413.00;;;;4976987;28;20440;-70
2022/04/28 02:18:55;;;;;;;6.00;4.40;;;3.70;99.90;4.20;97411.00;;;;4971088;28;20458;-70
2022/04/28 02:21:23;;;;;;;5.27;4.63;;;3.70;99.90;4.20;97405.00;;;;4971194;28;20475;-70
2022/04/28 02:23:52;;;;;;;4.67;4.00;;;3.80;99.90;4.10;97408.00;;;;4971545;28;20435;-70
2022/04/28 02:26:22;;;;;;;5.93;4.40;;;3.80;99.90;4.00;97409.00;;;;4971147;28;20435;-70
2022/04/28 02:28:51;;;;;;;4.73;4.30;;;3.70;99.90;4.00;97402.00;;;;4971038;28;20506;-70
2022/04/28 02:31:19;;;;;;;4.17;3.87;;;3.70;99.90;3.80;97409.00;;;;4970983;28;20443;-70
2022/04/28 02:33:48;;;;;;;6.27;4.37;;;3.60;99.90;3.70;97387.00;;;;4962502;28;20439;-70
2022/04/28 02:36:16;;;;;;;6.60;4.97;;;3.60;99.90;3.70;97392.00;;;;4971034;28;20197;-70
2022/04/28 02:38:45;;;;;;;5.93;4.47;;;3.50;99.90;3.80;97401.00;;;;4970914;28;20455;-70
2022/04/28 02:41:16;;;;;;;6.87;4.17;;;3.50;99.90;3.80;97388.00;;;;4970675;28;20474;-70
2022/04/28 02:43:46;;;;;;;8.00;4.77;;;3.40;99.90;3.70;97392.00;;;;4971431;28;20443;-70
2022/04/28 02:46:14;;;;;;;8.50;5.17;;;3.50;99.90;3.60;97395.00;;;;4970537;28;20526;-70
2022/04/28 02:48:43;;;;;;;5.53;5.00;;;4.40;99.90;3.80;97399.00;;;;4970542;28;20534;-70
2022/04/28 02:51:11;;;;;;;4.70;4.30;;;3.40;99.90;3.80;97397.00;;;;4970794;28;20446;-70
2022/04/28 02:53:40;;;;;;;7.77;5.10;;;3.40;99.90;3.50;97391.00;;;;4971205;28;20530;-70
2022/04/28 02:56:09;;;;;;;5.37;4.63;;;3.40;99.90;3.50;97397.00;;;;4971009;28;20442;-70
2022/04/28 02:58:37;;;;;;;5.57;4.60;;;3.30;99.90;3.50;97387.00;;;;4970610;28;20430;-70
2022/04/28 03:01:08;;;;;;;5.03;4.53;;;3.20;99.90;3.50;97403.00;;;;4970643;28;20470;-70
2022/04/28 03:03:36;;;;;;;6.57;5.93;;;3.20;99.90;3.50;97398.00;;;;4970641;28;20530;-70
2022/04/28 03:11:37;;;;;;;4.47;4.07;;;3.20;99.90;3.20;97397.00;;;;4970532;28;20441;-71
2022/04/28 03:14:06;;;;;;;5.80;4.37;;;3.10;99.90;3.40;97398.00;;;;4969986;28;20521;-70
2022/04/28 03:16:36;;;;;;;6.47;4.53;;;3.20;99.90;3.40;97408.00;;;;4970452;28;20445;-70
2022/04/28 03:19:05;;;;;;;5.77;5.17;;;3.10;99.90;3.40;97409.00;;;;4970871;28;20461;-70
2022/04/28 03:21:34;;;;;;;5.33;3.87;;;3.10;99.90;3.30;97413.00;;;;4970250;28;20489;-70
2022/04/28 03:24:03;;;;;;;4.73;4.20;;;3.00;99.90;3.10;97404.00;;;;4971010;28;20564;-70
2022/04/28 03:26:31;;;;;;;5.73;4.20;;;3.00;99.90;3.30;97406.00;;;;4970517;28;20635;-70
2022/04/28 03:29:00;;;;;;;10.17;4.23;;;3.00;99.90;3.30;97406.00;;;;4970640;28;20454;-70
2022/04/28 03:31:29;;;;;;;7.40;4.03;;;3.00;99.90;3.20;97403.00;;;;4970335;28;20435;-70
2022/04/28 03:33:59;;;;;;;11.50;4.90;;;2.90;99.90;3.20;97403.00;;;;4970983;28;20439;-71
2022/04/28 03:39:13;;;;;;;8.97;4.97;;;2.90;99.90;2.80;97402.00;;;;4972657;28;20454;-70
2022/04/28 03:41:42;;;;;;;13.83;5.13;;;4.00;99.90;3.00;97403.00;;;;4974245;28;20474;-70
2022/04/28 03:44:10;;;;;;;6.00;5.10;;;2.80;99.90;3.20;97413.00;;;;4974417;28;20450;-70
2022/04/28 03:46:39;;;;;;;5.00;4.50;;;2.80;99.90;3.20;97405.00;;;;4973838;28;20430;-70
2022/04/28 03:49:09;;;;;;;6.43;5.73;;;2.80;99.90;3.20;97419.00;;;;4974095;28;20451;-70
2022/04/28 03:51:37;;;;;;;9.07;5.20;;;2.80;99.90;3.10;97418.00;;;;4973966;28;20529;-70
2022/04/28 03:54:06;;;;;;;5.03;4.53;;;2.90;99.90;2.90;97415.00;;;;4974456;28;20443;-70
2022/04/28 03:56:35;;;;;;;13.97;5.20;;;2.80;99.90;3.10;97412.00;;;;4973871;28;20493;-70
2022/04/28 03:59:04;;;;;;;6.77;4.50;;;2.80;99.90;3.10;97416.00;;;;4974104;28;20454;-69
2022/04/28 04:01:32;;;;;;;8.57;6.77;;;2.90;99.90;3.10;97419.00;;;;4973100;28;20478;-70
2022/04/28 04:04:01;;;;;;;11.73;6.20;;;2.80;99.90;3.10;97422.00;;;;4970649;28;20442;-70
2022/04/28 04:06:32;;;;;;;7.30;5.63;;;2.80;99.90;3.10;97427.00;;;;4973170;28;20462;-70
2022/04/28 04:09:00;;;;;;;6.27;5.37;;;2.80;99.90;3.10;97428.00;;;;4968724;28;20461;-70
2022/04/28 04:11:29;;;;;;;8.33;6.37;;;2.80;99.90;2.90;97434.00;;;;4973133;28;20434;-70
2022/04/28 04:13:58;;;;;;;8.93;6.00;;;2.90;99.90;2.90;97437.00;;;;4974077;28;20435;-70
2022/04/28 04:16:26;;;;;;;8.83;7.50;;;2.70;99.90;2.80;97436.00;;;;4965585;28;20452;-71
2022/04/28 04:18:55;;;;;;;6.03;5.53;;;2.80;99.90;2.80;97441.00;;;;4966794;28;20485;-69
2022/04/28 04:21:23;;;;;;;5.17;4.33;;;2.70;99.90;2.50;97445.00;;;;4967441;28;20459;-70
2022/04/28 04:23:53;;;;;;;4.67;4.23;;;2.60;99.90;2.90;97438.00;;;;4971141;28;20439;-70
2022/04/28 04:26:22;;;;;;;5.63;5.03;;;2.70;99.90;3.00;97443.00;;;;4970485;28;20442;-71
2022/04/28 04:28:50;;;;;;;5.23;4.73;;;2.70;99.90;2.80;97453.00;;;;4973214;28;20563;-71
2022/04/28 04:34:05;;;;;;;5.87;5.20;;;2.70;99.90;2.90;97441.00;;;;4973266;28;20434;-71
2022/04/28 04:36:34;;;;;;;7.30;3.83;;;2.70;99.90;2.60;97445.00;;;;4973277;28;20435;-71
2022/04/28 04:39:04;;;;;;;5.43;4.80;;;2.60;99.90;2.50;97448.00;;;;4972609;28;20463;-72
2022/04/28 04:41:32;;;;;;;6.57;4.37;;;2.60;99.90;2.80;97454.00;;;;4972837;28;20435;-71
2022/04/28 04:44:01;;;;;;;5.33;4.43;;;2.70;99.90;2.90;97451.00;;;;4972746;28;20442;-71
2022/04/28 04:46:30;;;;;;;6.97;5.20;;;2.70;99.90;2.90;97451.00;;;;4972824;28;20434;-70
2022/04/28 04:48:58;;;;;;;6.30;5.17;;;2.70;99.90;2.60;97448.00;;;;4972593;28;20583;-70
2022/04/28 04:51:27;;;;;;;11.87;5.60;;;2.70;99.90;2.80;97446.00;;;;4968160;28;20480;-70
2022/04/28 04:53:56;;;;;;;11.00;5.53;;;2.70;99.90;2.60;97448.00;;;;4971338;28;20435;-70
2022/04/28 04:56:26;;;;;;;6.00;5.40;;;2.70;99.90;3.00;97444.00;;;;4972180;28;20433;-71
2022/04/28 04:58:54;;;;;;;6.47;5.50;;;2.80;99.90;3.00;97455.00;;;;4969618;28;20664;-71
2022/04/28 05:01:23;;;;;;;5.20;4.70;;;2.80;99.90;3.20;97452.00;;;;4974150;28;20456;-71
2022/04/28 05:03:52;;;;;;;6.47;5.77;;;3.10;99.90;3.40;97451.00;;;;4969369;28;20492;-71
2022/04/28 05:06:20;;;;;;;6.63;5.40;;;2.90;99.90;3.30;97458.00;;;;4972222;28;20458;-71
2022/04/28 05:08:51;;;;;;;6.67;5.77;;;3.10;99.90;3.40;97469.00;;;;4969904;28;20463;-71
2022/04/28 05:11:21;;;;;;;8.47;5.60;;;3.10;99.90;3.90;97468.00;;;;4969661;28;20450;-71
2022/04/28 05:13:51;;;;;;;7.43;5.30;;;3.30;99.90;3.70;97462.00;;;;4969512;28;20438;-71
2022/04/28 05:16:20;;;;;;;7.77;6.13;;;3.40;99.90;4.00;97471.00;;;;4971992;28;20431;-71
2022/04/28 05:18:48;;;;;;;9.60;6.03;;;3.40;99.90;4.20;97472.00;;;;4972051;28;20465;-71
2022/04/28 05:21:17;;;;;;;9.37;5.53;;;3.60;99.90;4.20;97468.00;;;;4972317;28;20446;-71
2022/04/28 05:23:45;;;;;;;7.73;6.00;;;3.70;99.90;4.40;97479.00;;;;4969617;28;20593;-71
2022/04/28 05:26:14;;;;;;;5.40;4.53;;;3.80;99.90;4.50;97474.00;;;;4970272;28;20447;-72
2022/04/28 05:28:43;;;;;;;6.27;5.67;;;3.90;99.90;4.70;97475.00;;;;4969953;28;20446;-71
2022/04/28 05:31:13;;;;;;;6.17;4.60;;;4.10;99.90;4.60;97474.00;;;;4970150;28;20450;-71
2022/04/28 05:33:42;;;;;;;11.17;5.00;;;4.10;99.90;4.80;97484.00;;;;4975332;28;20439;-71
2022/04/28 05:36:12;;;;;;;7.10;4.53;;;4.30;99.90;4.50;97468.00;;;;4974291;28;20473;-71
2022/04/28 05:38:41;;;;;;;5.90;5.30;;;4.40;99.90;4.80;97486.00;;;;4969001;28;20506;-71
2022/04/28 05:41:10;;;;;;;6.10;5.50;;;4.40;99.90;5.00;97477.00;;;;4972041;28;20525;-71
2022/04/28 05:46:26;;;;;;;5.97;5.37;;;4.60;99.90;5.20;97489.00;;;;4974490;28;20205;-71
2022/04/28 05:48:55;;;;;;;7.53;5.27;;;4.70;99.90;5.50;97491.00;;;;4972435;28;20223;-71
2022/04/28 05:51:24;;;;;;;6.30;5.47;;;4.80;99.90;5.30;97490.00;;;;4971880;28;20254;-71
2022/04/28 05:53:52;;;;;;;6.53;5.80;;;4.90;99.90;5.60;97485.00;;;;4971492;28;20200;-70
2022/04/28 05:56:21;;;;;;;6.13;5.50;;;5.00;99.90;6.00;97490.00;;;;4971540;28;20213;-71
2022/04/28 05:58:49;;;;;;;7.17;6.00;;;5.20;99.90;6.20;97482.00;;;;4971124;28;20217;-70
2022/04/28 06:01:19;;;;;;;5.87;5.27;;;5.30;99.90;6.30;97479.00;;;;4970684;28;20230;-70
2022/04/28 06:03:48;;;;;;;8.57;6.10;;;5.50;99.90;6.50;97486.00;;;;4970397;28;20250;-70
2022/04/28 06:06:17;;;;;;;6.20;5.60;;;5.70;99.90;6.80;97495.00;;;;4968425;28;20283;-71
2022/04/28 06:08:46;;;;;;;8.03;5.27;;;5.90;99.90;6.90;97495.00;;;;4968143;28;20216;-70
2022/04/28 06:11:14;;;;;;;9.60;5.63;;;6.10;99.90;7.10;97493.00;;;;4967050;28;20199;-70
2022/04/28 06:13:43;;;;;;;7.70;5.50;;;6.30;99.90;7.30;97491.00;;;;4965002;28;20200;-71
2022/04/28 06:16:12;;;;;;;6.80;6.17;;;6.40;99.90;7.40;97494.00;;;;4965703;28;20225;-70
2022/04/28 06:18:41;;;;;;;6.00;5.47;;;6.60;99.90;7.60;97500.00;;;;4967761;28;20253;-70
2022/04/28 06:21:11;;;;;;;7.47;5.83;;;6.70;99.90;8.00;97511.00;;;;4967761;28;20243;-69
2022/04/28 06:23:39;;;;;;;6.50;5.83;;;6.90;99.90;8.10;97505.00;;;;4965169;28;20227;-70
2022/04/28 06:26:08;;;;;;;6.23;5.63;;;7.10;99.90;8.40;97491.00;;;;4962817;28;20251;-70
2022/04/28 06:28:36;;;;;;;6.60;5.90;;;7.30;99.90;8.70;97502.00;;;;4971429;28;20278;-69
2022/04/28 06:31:05;;;;;;;6.67;5.20;;;7.50;99.90;8.90;97501.00;;;;4968209;28;20195;-70
2022/04/28 06:33:34;;;;;;;6.27;5.33;;;7.70;99.90;9.10;97497.00;;;;4970597;28;20203;-70
2022/04/28 06:36:03;;;;;;;6.60;6.00;;;7.90;99.90;9.40;97518.00;;;;4970602;28;20294;-70
2022/04/28 06:38:33;;;;;;;9.07;5.77;;;8.10;99.90;9.90;97510.00;;;;4970711;28;20199;-70
2022/04/28 06:41:01;;;;;;;8.67;5.73;;;8.40;99.90;10.20;97514.00;;;;4969198;28;20283;-69
2022/04/28 06:43:32;;;;;;;7.60;6.83;;;8.60;99.90;10.40;97513.00;;;;4970612;28;20211;-70
2022/04/28 06:46:12;;;;;;;9.50;6.13;;;8.90;99.90;10.60;97517.00;;;;4970700;28;20226;-70
2022/04/28 06:48:41;;;;;;;9.53;5.13;;;9.20;99.90;10.90;97522.00;;;;4970714;28;20293;-70
2022/04/28 06:51:10;;;;;;;6.20;5.33;;;9.40;99.90;11.10;97521.00;;;;4977093;28;20195;-70
2022/04/28 06:53:40;;;;;;;4.80;4.07;;;9.70;99.90;11.30;97533.00;;;;4970979;28;20253;-70
2022/04/28 06:56:09;;;;;;;6.87;4.80;;;9.90;99.90;11.40;97531.00;;;;4971857;28;20202;-70
2022/04/28 06:58:38;;;;;;;5.30;4.80;;;10.00;99.90;11.60;97533.00;;;;4972025;28;20246;-70
2022/04/28 07:01:07;;;;;;;5.60;5.10;;;10.20;99.90;11.70;97530.00;;;;4970823;28;20203;-70
2022/04/28 07:03:36;;;;;;;4.93;4.30;;;10.40;99.90;11.80;97524.00;;;;4966759;28;20232;-70
2022/04/28 07:06:05;;;;;;;5.60;4.53;;;10.50;99.90;12.00;97538.00;;;;4971707;28;20203;-70
2022/04/28 07:08:33;;;;;;;6.73;4.73;;;10.70;99.90;12.20;97535.00;;;;4968811;28;20294;-69
2022/04/28 07:11:03;;;;;;;5.30;4.40;;;10.80;99.90;12.40;97531.00;;;;4970306;28;20199;-69
2022/04/28 07:13:32;;;;;;;5.33;4.60;;;11.00;99.90;12.50;97526.00;;;;4971136;28;20291;-70
2022/04/28 07:16:03;;;;;;;4.53;4.10;;;11.20;99.90;12.70;97524.00;;;;4974671;28;20195;-70
2022/04/28 07:18:32;;;;;;;6.60;5.63;;;11.30;99.90;12.90;97530.00;;;;4974016;28;20207;-71
2022/04/28 07:21:02;;;;;;;4.83;4.40;;;11.50;99.90;13.10;97536.00;;;;4974075;28;20200;-71
2022/04/28 07:23:32;;;;;;;6.17;4.93;;;11.70;99.90;13.20;97533.00;;;;4973680;28;20227;-71
2022/04/28 07:26:02;;;;;;;11.07;5.20;;;11.80;99.90;13.40;97542.00;;;;4974226;28;20195;-71
2022/04/28 07:28:31;;;;;;;6.50;4.83;;;12.00;99.90;13.60;97536.00;;;;4974168;28;20281;-71
2022/04/28 07:30:59;;;;;;;6.13;3.93;;;12.20;99.90;13.70;97534.00;;;;4974860;28;20195;-71
2022/04/28 07:33:28;;;;;;;4.70;3.73;;;12.30;99.90;13.90;97542.00;;;;4977118;28;20195;-72
2022/04/28 07:35:57;;;;;;;4.90;3.70;;;12.50;99.90;14.10;97546.00;;;;4973852;28;20218;-72
2022/04/28 07:38:25;;;;;;;4.50;4.10;;;12.70;99.90;14.20;97547.00;;;;4971567;28;20209;-73
2022/04/28 07:40:55;;;;;;;5.87;3.63;;;12.80;99.90;14.30;97537.00;;;;4970856;28;20284;-73
2022/04/28 07:43:25;;;;;;;4.83;3.77;;;13.00;99.80;14.60;97554.00;;;;4972532;28;20199;-72
2022/04/28 07:45:54;;;;;;;4.57;4.03;;;13.20;99.70;14.50;97552.00;;;;4971156;28;20195;-71
2022/04/28 07:48:22;;;;;;;4.63;4.23;;;13.30;95.40;14.50;97541.00;;;;4973407;28;20207;-73
2022/04/28 07:50:51;;;;;;;4.37;4.00;;;13.50;94.20;14.70;97540.00;;;;4971883;28;20258;-70
2022/04/28 07:53:20;;;;;;;5.03;3.80;;;13.60;91.60;14.50;97546.00;;;;4973559;28;20192;-70
2022/04/28 07:56:10;;;;;;;5.70;3.67;;;13.70;86.70;14.70;97550.00;;;;4973539;28;20195;-71
2022/04/28 07:58:39;;;;;;;7.17;3.97;;;13.80;85.70;14.40;97539.00;;;;4973628;28;20199;-68
2022/04/28 08:01:08;;;;;;;3.83;3.17;;;13.80;80.80;14.90;97553.00;;;;4974005;28;20282;-71
2022/04/28 08:03:37;;;;;;;4.37;3.00;;;13.90;82.30;14.60;97548.00;;;;4973269;28;20293;-70
2022/04/28 08:06:07;;;;;;;4.33;3.37;;;14.00;76.70;15.00;97556.00;;;;4973904;28;20206;-71
2022/04/28 08:08:36;;;;;;;3.53;2.73;;;14.10;77.90;15.80;97559.00;;;;4972778;28;20199;-71
2022/04/28 08:11:04;;;;;;;3.93;3.53;;;14.30;80.50;16.00;97551.00;;;;4972915;28;20222;-72
2022/04/28 08:13:34;;;;;;;4.50;2.83;;;14.50;77.30;15.20;97553.00;;;;4970099;28;20278;-69
2022/04/28 08:16:04;;;;;;;7.67;3.23;;;14.60;70.10;15.50;97558.00;;;;4971977;28;20196;-71
2022/04/28 08:18:35;;;;;;;5.60;3.23;;;14.70;72.40;16.20;97554.00;;;;4973051;28;20210;-72
2022/04/28 08:21:08;;;;;;;2.83;2.63;;;14.80;71.80;16.80;97553.00;;;;4961538;28;20207;-72
2022/04/28 08:23:37;;;;;;;4.07;3.30;;;15.10;73.00;16.80;97546.00;;;;4972908;28;20204;-71
2022/04/28 08:26:06;;;;;;;5.00;3.43;;;15.40;71.60;16.70;97570.00;;;;4972666;28;20187;-72
2022/04/28 08:28:34;;;;;;;3.10;2.80;;;15.50;69.10;17.10;97565.00;;;;4974561;28;20230;-72
2022/04/28 08:31:04;;;;;;;3.00;2.53;;;15.60;70.10;16.70;97555.00;;;;4973480;28;20254;-70
2022/04/28 08:33:33;;;;;;;5.20;3.27;;;15.70;67.30;17.30;97588.00;;;;4973442;28;20203;-71
2022/04/28 08:36:01;;;;;;;4.73;3.43;;;15.90;68.80;16.40;97584.00;;;;4968720;28;20254;-72
2022/04/28 08:38:31;;;;;;;3.13;2.83;;;15.90;65.40;16.30;97588.00;;;;4972389;28;20198;-72
2022/04/28 08:41:03;;;;;;;7.13;2.97;;;15.70;65.70;16.30;97596.00;;;;4973131;28;20203;-72
2022/04/28 08:43:33;;;;;;;3.53;3.23;;;15.60;65.60;16.00;97588.00;;;;4973388;28;20258;-72
2022/04/28 08:48:57;;;;;;;3.10;2.47;;;15.30;64.40;15.90;97595.00;;;;4967421;28;20223;-72
2022/04/28 08:51:27;;;;;;;6.17;2.90;;;15.20;65.00;15.10;97596.00;;;;4972813;28;20230;-69
2022/04/28 08:53:56;;;;;;;3.83;2.57;;;15.00;61.40;15.70;97593.00;;;;4973282;28;20270;-71
2022/04/28 08:56:24;;;;;;;3.10;2.33;;;14.80;62.70;16.00;97595.00;;;;4971533;28;20234;-70
2022/04/28 08:58:54;;;;;;;2.53;2.33;;;14.90;64.60;16.00;97605.00;;;;4972483;28;20227;-70
2022/04/28 09:01:27;;;;;;;3.33;2.77;;;14.90;66.30;15.40;97602.00;;;;4972971;28;20229;-70
2022/04/28 09:03:57;;;;;;;3.33;2.70;;;14.90;62.20;15.50;97598.00;;;;4972787;28;20199;-70
2022/04/28 09:06:43;;;;;;;2.97;2.70;;;14.80;63.40;15.70;97585.00;;;;4973921;28;20204;-70
2022/04/28 09:09:15;;;;;;;5.93;2.93;;;14.80;61.70;16.00;97598.00;;;;4969277;28;20266;-72
2022/04/28 09:11:45;;;;;;;6.60;3.00;;;14.90;64.90;16.00;97601.00;;;;4971497;28;20196;-69
2022/04/28 09:14:15;;;;;;;3.30;2.60;;;15.00;61.50;17.50;97584.00;;;;4970346;28;20226;-71
2022/04/28 09:16:49;;;;;;;4.57;2.47;;;15.40;63.30;17.40;97555.00;;;;4967600;28;20211;-69
2022/04/28 09:19:22;;;;;;;3.83;3.00;;;15.90;64.20;17.70;97564.00;;;;4969570;28;20315;-70
2022/04/28 09:21:53;;;;;;;4.30;3.17;;;16.20;60.50;17.70;97590.00;;;;4967285;28;20236;-72
2022/04/28 09:24:22;;;;;;;4.70;3.30;;;16.60;64.70;17.70;97572.00;;;;4973468;28;20211;-70
2022/04/28 09:26:54;;;;;;;3.17;2.10;;;16.60;61.30;18.00;97599.00;;;;4970203;28;20247;-72
2022/04/28 09:29:25;;;;;;;4.50;2.87;;;16.70;61.60;17.30;97601.00;;;;4963150;28;20223;-72
2022/04/28 09:31:55;;;;;;;3.23;2.90;;;16.60;58.60;16.40;97596.00;;;;4964675;28;20195;-70
2022/04/28 09:34:46;;;;;;;2.73;2.33;;;16.40;58.50;16.50;97597.00;;;;4972748;28;20266;-71
2022/04/28 09:37:17;;;;;;;2.90;2.67;;;16.10;59.40;16.10;97597.00;;;;4967317;28;20210;-72
2022/04/28 09:42:39;;;;;;;3.07;2.77;;;15.70;57.50;16.40;97599.00;;;;4971167;28;20203;-71
2022/04/28 09:45:10;;;;;;;2.23;2.03;;;15.70;58.00;17.00;97591.00;;;;4971188;28;20250;-71
2022/04/28 09:47:40;;;;;;;2.43;2.23;;;15.70;58.90;17.30;97588.00;;;;4971713;28;20385;-71
2022/04/28 09:50:16;;;;;;;2.57;2.37;;;15.80;59.70;17.30;97590.00;;;;4972009;28;20223;-71
2022/04/28 09:52:49;;;;;;;3.93;2.77;;;16.00;59.60;17.40;97593.00;;;;4971124;28;20282;-71
2022/04/28 09:55:18;;;;;;;2.70;2.50;;;16.10;58.60;17.80;97583.00;;;;4971465;28;20235;-70
2022/04/28 09:57:47;;;;;;;2.87;2.67;;;16.20;59.80;16.90;97588.00;;;;4975571;28;20192;-71
2022/04/28 10:00:17;;;;;;;5.63;2.20;;;16.30;57.70;17.10;97597.00;;;;4970762;28;20294;-70
2022/04/28 10:02:49;;;;;;;3.67;2.60;;;16.10;57.70;16.90;97586.00;;;;4971380;28;20206;-71
2022/04/28 10:05:18;;;;;;;3.73;2.83;;;16.10;59.00;17.00;97603.00;;;;4972855;28;20227;-72
2022/04/28 10:07:49;;;;;;;3.27;2.30;;;16.00;58.70;16.40;97587.00;;;;4966736;28;20202;-69
2022/04/28 10:10:17;;;;;;;3.77;2.17;;;16.00;56.40;16.30;97573.00;;;;4970360;28;20232;-69
2022/04/28 10:12:47;;;;;;;4.03;3.30;;;15.90;56.50;16.80;97583.00;;;;4972207;28;20204;-70
2022/04/28 10:15:17;;;;;;;3.27;3.00;;;15.80;57.60;16.00;97582.00;;;;4977161;28;20207;-71
2022/04/28 10:17:50;;;;;;;3.20;2.50;;;15.70;56.50;16.90;97588.00;;;;4971162;28;20204;-71
2022/04/28 10:20:26;;;;;;;5.80;2.87;;;15.80;58.10;16.70;97597.00;;;;4971758;28;20219;-70
2022/04/28 10:23:17;;;;;;;3.20;2.90;;;15.80;58.10;16.60;97599.00;;;;4971013;28;20203;-70
2022/04/28 10:34:13;;;;;;;2.50;2.30;;;15.70;57.00;17.10;97597.00;;;;4965620;28;20587;-69
2022/04/28 10:37:01;;;;;;;2.83;2.53;;;15.70;58.30;17.30;97598.00;;;;4969086;28;20209;-69
2022/04/28 10:39:38;;;;;;;2.60;2.40;;;15.80;58.40;17.40;97592.00;;;;4973856;28;20618;-69
2022/04/28 10:42:22;;;;;;;3.40;3.00;;;16.00;59.10;17.10;97591.00;;;;4966908;28;20195;-70
2022/04/28 10:44:54;;;;;;;3.17;2.47;;;16.10;57.70;17.70;97595.00;;;;4963461;28;20250;-69
2022/04/28 10:47:30;;;;;;;2.77;2.40;;;16.20;58.20;17.10;97606.00;;;;4971765;28;20223;-70
2022/04/28 10:50:00;;;;;;;2.77;2.53;;;16.20;56.30;16.70;97593.00;;;;4970685;28;20214;-69
2022/04/28 10:52:29;;;;;;;2.80;2.47;;;16.20;56.40;17.50;97593.00;;;;4971038;28;20196;-69
2022/04/28 10:55:01;;;;;;;3.30;3.00;;;16.20;58.40;17.40;97590.00;;;;4968535;28;20258;-70
2022/04/28 10:57:33;;;;;;;6.03;3.30;;;16.30;57.90;17.40;97593.00;;;;4969292;28;20203;-70
2022/04/28 11:00:03;;;;;;;2.80;2.57;;;16.30;58.10;17.40;97586.00;;;;4966659;28;20219;-71
2022/04/28 11:02:43;;;;;;;3.30;3.00;;;16.30;57.90;17.80;97607.00;;;;4968945;28;20290;-70
2022/04/28 11:05:37;;;;;;;2.63;2.43;;;16.40;59.10;16.90;97605.00;;;;4964294;28;20223;-70
2022/04/28 11:08:25;;;;;;;3.53;2.77;;;16.40;55.20;16.90;97604.00;;;;4965674;28;20202;-69
2022/04/28 11:11:11;;;;;;;2.93;2.40;;;16.30;54.70;17.00;97591.00;;;;4964195;28;20266;-69
2022/04/28 11:13:43;;;;;;;2.57;2.37;;;16.20;55.40;17.30;97608.00;;;;4968863;28;20191;-72
2022/04/28 11:16:13;;;;;;;2.70;2.43;;;16.20;55.60;17.80;97597.00;;;;4967208;28;20195;-73
2022/04/28 11:18:42;;;;;;;3.37;2.63;;;16.40;57.20;18.20;97608.00;;;;4968890;28;20196;-74
2022/04/28 11:21:14;;;;;;;2.80;2.57;;;16.60;56.70;17.60;97601.00;;;;4970566;28;20210;-74
2022/04/28 11:23:46;;;;;;;2.70;2.47;;;16.70;56.50;17.30;97603.00;;;;4969611;28;20225;-73
2022/04/28 11:26:15;;;;;;;4.83;2.57;;;16.70;55.00;17.40;97606.00;;;;4966487;28;20302;-71
2022/04/28 11:28:44;;;;;;;4.00;3.60;;;16.70;54.00;16.90;97606.00;;;;4969401;28;20223;-71
2022/04/28 11:31:28;;;;;;;2.77;2.57;;;16.60;53.80;17.60;97613.00;;;;4965343;28;20718;-71
2022/04/28 11:33:56;;;;;;;6.70;3.13;;;16.50;55.40;17.60;97614.00;;;;4963759;28;20199;-72
2022/04/28 11:36:29;;;;;;;4.07;2.90;;;16.50;56.20;17.90;97617.00;;;;4968089;28;20211;-72
2022/04/28 11:39:01;;;;;;;3.30;2.70;;;16.50;57.20;18.20;97615.00;;;;4966220;28;20215;-72
2022/04/28 11:41:33;;;;;;;3.20;2.90;;;16.60;56.90;18.20;97623.00;;;;4969779;28;20211;-71
2022/04/28 11:44:07;;;;;;;4.53;3.60;;;16.80;56.40;17.60;97617.00;;;;4968203;28;20200;-72
2022/04/28 11:46:38;;;;;;;3.33;2.20;;;16.80;55.80;17.60;97621.00;;;;4972536;28;20310;-73
2022/04/28 11:49:07;;;;;;;2.50;2.20;;;16.70;54.70;17.80;97622.00;;;;4969929;28;20219;-73
2022/04/28 11:51:37;;;;;;;2.63;2.20;;;16.70;56.20;17.60;97623.00;;;;4970269;28;20246;-72